Time;durP1;ratioP1;P1;durP2;ratioP2;P2;SDS_P1;SDS_P2;PMS_P1;PMS_P2;Temp;Humidity;BMP_temperature;BMP_pressure;BME280_temperature;BME280_humidity;BME280_pressure;Samples;Min_cycle;Max_cycle;Signal;HPM_P1;HPM_P2
2020/10/09 00:00:13;;;;;;;3.400001;2.2;;;;;;;10.22;81.22266;95692.16;;;;
2020/10/09 00:02:42;;;;;;;3.400001;2.2;;;;;;;10.22;81.22266;95692.16;;;;
2020/10/09 00:03:43;;;;;;;3.400001;2.2;;;;;;;10.22;81.22266;95692.16;;;;
2020/10/09 00:04:45;;;;;;;3.400001;2.2;;;;;;;10.22;81.22266;95692.16;;;;
2020/10/09 00:05:47;;;;;;;3.85;2.1;;;;;;;10.17;81.47852;95701.54;;;;
2020/10/09 00:06:48;;;;;;;3.85;2.1;;;;;;;10.17;81.47852;95701.54;;;;
2020/10/09 00:07:49;;;;;;;3.85;2.1;;;;;;;10.17;81.47852;95701.54;;;;
2020/10/09 00:08:56;;;;;;;3.85;2.1;;;;;;;10.17;81.47852;95701.54;;;;
2020/10/09 00:09:58;;;;;;;3.85;2.1;;;;;;;10.17;81.47852;95701.54;;;;
2020/10/09 00:11:05;;;;;;;3.85;2.1;;;;;;;10.17;81.47852;95701.54;;;;
2020/10/09 00:12:52;;;;;;;3.85;2.1;;;;;;;10.17;81.47852;95701.54;;;;
2020/10/09 00:13:54;;;;;;;3.85;2.1;;;;;;;10.17;81.47852;95701.54;;;;
2020/10/09 00:15:18;;;;;;;3.85;2.1;;;;;;;10.17;81.47852;95701.54;;;;
2020/10/09 00:16:54;;;;;;;3;2.1;;;;;;;10.07;82.0791;95705.16;;;;
2020/10/09 00:18:24;;;;;;;3;2.1;;;;;;;10.07;82.0791;95705.16;;;;
2020/10/09 00:19:34;;;;;;;3;2.1;;;;;;;10.07;82.0791;95705.16;;;;
2020/10/09 00:20:35;;;;;;;3;2.1;;;;;;;10.07;82.0791;95705.16;;;;
2020/10/09 00:21:35;;;;;;;3;2.1;;;;;;;10.07;82.0791;95705.16;;;;
2020/10/09 00:22:36;;;;;;;3;2.1;;;;;;;10.07;82.0791;95705.16;;;;
2020/10/09 00:23:36;;;;;;;3;2.1;;;;;;;10.07;82.0791;95705.16;;;;
2020/10/09 00:24:37;;;;;;;3;2.1;;;;;;;10.07;82.0791;95705.16;;;;
2020/10/09 00:25:42;;;;;;;3;2.1;;;;;;;10.07;82.0791;95705.16;;;;
2020/10/09 00:26:51;;;;;;;3;2.4;;;;;;;9.97;82.82715;95708.87;;;;
2020/10/09 00:27:52;;;;;;;3;2.4;;;;;;;9.97;82.82715;95708.87;;;;
2020/10/09 00:28:52;;;;;;;3;2.4;;;;;;;9.97;82.82715;95708.87;;;;
2020/10/09 00:29:53;;;;;;;3;2.4;;;;;;;9.97;82.82715;95708.87;;;;
2020/10/09 00:30:56;;;;;;;3;2.4;;;;;;;9.97;82.82715;95708.87;;;;
2020/10/09 00:31:57;;;;;;;3;2.4;;;;;;;9.97;82.82715;95708.87;;;;
2020/10/09 00:32:57;;;;;;;3;2.4;;;;;;;9.97;82.82715;95708.87;;;;
2020/10/09 00:33:58;;;;;;;3;2.4;;;;;;;9.97;82.82715;95708.87;;;;
2020/10/09 00:34:59;;;;;;;3;2.4;;;;;;;9.97;82.82715;95708.87;;;;
2020/10/09 00:35:59;;;;;;;3;2.4;;;;;;;9.97;82.82715;95708.87;;;;
2020/10/09 00:37:05;;;;;;;3;2.4;;;;;;;9.97;82.82715;95708.87;;;;
2020/10/09 00:38:05;;;;;;;3.2;2.2;;;;;;;10;83.43164;95683.2;;;;
2020/10/09 00:39:08;;;;;;;3.2;2.2;;;;;;;10;83.43164;95683.2;;;;
2020/10/09 00:40:09;;;;;;;3.2;2.2;;;;;;;10;83.43164;95683.2;;;;
2020/10/09 00:41:10;;;;;;;3.2;2.2;;;;;;;10;83.43164;95683.2;;;;
2020/10/09 00:42:56;;;;;;;3.2;2.2;;;;;;;10;83.43164;95683.2;;;;
2020/10/09 00:43:57;;;;;;;3.2;2.2;;;;;;;10;83.43164;95683.2;;;;
2020/10/09 00:44:57;;;;;;;3.2;2.2;;;;;;;10;83.43164;95683.2;;;;
2020/10/09 00:46:00;;;;;;;3.2;2.2;;;;;;;10;83.43164;95683.2;;;;
2020/10/09 00:47:00;;;;;;;3.2;2.2;;;;;;;10;83.43164;95683.2;;;;
2020/10/09 00:48:01;;;;;;;3.2;2.2;;;;;;;10;83.43164;95683.2;;;;
2020/10/09 00:49:10;;;;;;;2.8;2.3;;;;;;;9.97;83.61621;95676.08;;;;
2020/10/09 00:50:12;;;;;;;2.8;2.3;;;;;;;9.97;83.61621;95676.08;;;;
2020/10/09 00:51:15;;;;;;;2.8;2.3;;;;;;;9.97;83.61621;95676.08;;;;
2020/10/09 00:52:16;;;;;;;2.8;2.3;;;;;;;9.97;83.61621;95676.08;;;;
2020/10/09 00:53:17;;;;;;;2.8;2.3;;;;;;;9.97;83.61621;95676.08;;;;
2020/10/09 00:54:17;;;;;;;2.8;2.3;;;;;;;9.97;83.61621;95676.08;;;;
2020/10/09 00:55:18;;;;;;;2.8;2.3;;;;;;;9.97;83.61621;95676.08;;;;
2020/10/09 00:56:22;;;;;;;2.8;2.3;;;;;;;9.97;83.61621;95676.08;;;;
2020/10/09 00:57:33;;;;;;;2.8;2.3;;;;;;;9.97;83.61621;95676.08;;;;
2020/10/09 00:58:37;;;;;;;2.8;2.3;;;;;;;9.97;83.61621;95676.08;;;;
2020/10/09 00:59:40;;;;;;;6.150001;2.2;;;;;;;9.95;83.79395;95697.05;;;;
2020/10/09 01:00:42;;;;;;;6.150001;2.2;;;;;;;9.95;83.79395;95697.05;;;;
2020/10/09 01:02:11;;;;;;;6.150001;2.2;;;;;;;9.95;83.79395;95697.05;;;;
2020/10/09 01:08:12;;;;;;;6.150001;2.2;;;;;;;9.95;83.79395;95697.05;;;;
2020/10/09 01:13:27;;;;;;;4.649999;2.3;;;;;;;9.84;84.01855;95690.1;;;;
2020/10/09 01:14:29;;;;;;;4.649999;2.3;;;;;;;9.84;84.01855;95690.1;;;;
2020/10/09 01:15:30;;;;;;;4.649999;2.3;;;;;;;9.84;84.01855;95690.1;;;;
2020/10/09 01:17:09;;;;;;;4.649999;2.3;;;;;;;9.84;84.01855;95690.1;;;;
2020/10/09 01:18:30;;;;;;;4.649999;2.3;;;;;;;9.84;84.01855;95690.1;;;;
2020/10/09 01:19:32;;;;;;;4.649999;2.3;;;;;;;9.84;84.01855;95690.1;;;;
2020/10/09 01:20:33;;;;;;;3.3;2.2;;;;;;;9.79;84.4873;95690.88;;;;
2020/10/09 01:22:43;;;;;;;3.3;2.2;;;;;;;9.79;84.4873;95690.88;;;;
2020/10/09 01:23:44;;;;;;;3.3;2.2;;;;;;;9.79;84.4873;95690.88;;;;
2020/10/09 01:25:17;;;;;;;3.3;2.2;;;;;;;9.79;84.4873;95690.88;;;;
2020/10/09 01:26:17;;;;;;;3.3;2.2;;;;;;;9.79;84.4873;95690.88;;;;
2020/10/09 01:27:18;;;;;;;3.3;2.2;;;;;;;9.79;84.4873;95690.88;;;;
2020/10/09 01:28:19;;;;;;;3.3;2.2;;;;;;;9.79;84.4873;95690.88;;;;
2020/10/09 01:29:20;;;;;;;3.3;2.2;;;;;;;9.79;84.4873;95690.88;;;;
2020/10/09 01:30:22;;;;;;;3.3;2.2;;;;;;;9.79;84.4873;95690.88;;;;
2020/10/09 01:31:38;;;;;;;3.55;2.15;;;;;;;9.67;84.87891;95683.63;;;;
2020/10/09 01:32:39;;;;;;;3.55;2.15;;;;;;;9.67;84.87891;95683.63;;;;
2020/10/09 01:35:54;;;;;;;3.55;2.15;;;;;;;9.67;84.87891;95683.63;;;;
2020/10/09 01:36:54;;;;;;;3.55;2.15;;;;;;;9.67;84.87891;95683.63;;;;
2020/10/09 01:37:57;;;;;;;3.55;2.15;;;;;;;9.67;84.87891;95683.63;;;;
2020/10/09 01:38:58;;;;;;;3.55;2.15;;;;;;;9.67;84.87891;95683.63;;;;
2020/10/09 01:39:58;;;;;;;3.55;2.15;;;;;;;9.67;84.87891;95683.63;;;;
2020/10/09 01:41:06;;;;;;;3.55;2.15;;;;;;;9.67;84.87891;95683.63;;;;
2020/10/09 01:42:38;;;;;;;6.45;2.5;;;;;;;9.63;85.45605;95677.95;;;;
2020/10/09 01:43:41;;;;;;;6.45;2.5;;;;;;;9.63;85.45605;95677.95;;;;
2020/10/09 01:44:42;;;;;;;6.45;2.5;;;;;;;9.63;85.45605;95677.95;;;;
2020/10/09 01:46:57;;;;;;;6.45;2.5;;;;;;;9.63;85.45605;95677.95;;;;
2020/10/09 01:47:57;;;;;;;6.45;2.5;;;;;;;9.63;85.45605;95677.95;;;;
2020/10/09 01:48:58;;;;;;;6.45;2.5;;;;;;;9.63;85.45605;95677.95;;;;
2020/10/09 01:49:59;;;;;;;6.45;2.5;;;;;;;9.63;85.45605;95677.95;;;;
2020/10/09 01:51:03;;;;;;;6.45;2.5;;;;;;;9.63;85.45605;95677.95;;;;
2020/10/09 01:52:03;;;;;;;6.45;2.5;;;;;;;9.63;85.45605;95677.95;;;;
2020/10/09 01:53:04;;;;;;;2.9;2.45;;;;;;;9.56;85.94336;95673.97;;;;
2020/10/09 01:54:14;;;;;;;2.9;2.45;;;;;;;9.56;85.94336;95673.97;;;;
2020/10/09 01:55:14;;;;;;;2.9;2.45;;;;;;;9.56;85.94336;95673.97;;;;
2020/10/09 01:56:18;;;;;;;2.9;2.45;;;;;;;9.56;85.94336;95673.97;;;;
2020/10/09 01:57:22;;;;;;;2.9;2.45;;;;;;;9.56;85.94336;95673.97;;;;
2020/10/09 01:58:22;;;;;;;2.9;2.45;;;;;;;9.56;85.94336;95673.97;;;;
2020/10/09 01:59:23;;;;;;;2.9;2.45;;;;;;;9.56;85.94336;95673.97;;;;
2020/10/09 02:00:23;;;;;;;2.9;2.45;;;;;;;9.56;85.94336;95673.97;;;;
2020/10/09 02:04:55;;;;;;;4.25;2.2;;;;;;;9.56;86.4541;95687.03;;;;
2020/10/09 02:05:56;;;;;;;4.25;2.2;;;;;;;9.56;86.4541;95687.03;;;;
2020/10/09 02:06:56;;;;;;;4.25;2.2;;;;;;;9.56;86.4541;95687.03;;;;
2020/10/09 02:07:57;;;;;;;4.25;2.2;;;;;;;9.56;86.4541;95687.03;;;;
2020/10/09 02:08:58;;;;;;;4.25;2.2;;;;;;;9.56;86.4541;95687.03;;;;
2020/10/09 02:09:59;;;;;;;4.25;2.2;;;;;;;9.56;86.4541;95687.03;;;;
2020/10/09 02:10:59;;;;;;;4.25;2.2;;;;;;;9.56;86.4541;95687.03;;;;
2020/10/09 02:12:20;;;;;;;4.25;2.2;;;;;;;9.56;86.4541;95687.03;;;;
2020/10/09 02:13:29;;;;;;;8.500002;2.75;;;;;;;9.49;86.8877;95680.36;;;;
2020/10/09 02:14:35;;;;;;;8.500002;2.75;;;;;;;9.49;86.8877;95680.36;;;;
2020/10/09 02:15:36;;;;;;;8.500002;2.75;;;;;;;9.49;86.8877;95680.36;;;;
2020/10/09 02:16:37;;;;;;;8.500002;2.75;;;;;;;9.49;86.8877;95680.36;;;;
2020/10/09 02:17:38;;;;;;;8.500002;2.75;;;;;;;9.49;86.8877;95680.36;;;;
2020/10/09 02:18:39;;;;;;;8.500002;2.75;;;;;;;9.49;86.8877;95680.36;;;;
2020/10/09 02:19:40;;;;;;;8.500002;2.75;;;;;;;9.49;86.8877;95680.36;;;;
2020/10/09 02:20:40;;;;;;;8.500002;2.75;;;;;;;9.49;86.8877;95680.36;;;;
2020/10/09 02:21:41;;;;;;;8.500002;2.75;;;;;;;9.49;86.8877;95680.36;;;;
2020/10/09 02:22:41;;;;;;;8.500002;2.75;;;;;;;9.49;86.8877;95680.36;;;;
2020/10/09 02:23:42;;;;;;;8.500002;2.75;;;;;;;9.49;86.8877;95680.36;;;;
2020/10/09 02:24:42;;;;;;;4.099999;2.3;;;;;;;9.49;87.40723;95674.55;;;;
2020/10/09 02:25:44;;;;;;;4.099999;2.3;;;;;;;9.49;87.40723;95674.55;;;;
2020/10/09 02:27:03;;;;;;;4.099999;2.3;;;;;;;9.49;87.40723;95674.55;;;;
2020/10/09 02:28:04;;;;;;;4.099999;2.3;;;;;;;9.49;87.40723;95674.55;;;;
2020/10/09 02:29:04;;;;;;;4.099999;2.3;;;;;;;9.49;87.40723;95674.55;;;;
2020/10/09 02:30:09;;;;;;;4.099999;2.3;;;;;;;9.49;87.40723;95674.55;;;;
2020/10/09 02:31:09;;;;;;;4.099999;2.3;;;;;;;9.49;87.40723;95674.55;;;;
2020/10/09 02:32:16;;;;;;;4.099999;2.3;;;;;;;9.49;87.40723;95674.55;;;;
2020/10/09 02:33:35;;;;;;;4.099999;2.3;;;;;;;9.49;87.40723;95674.55;;;;
2020/10/09 02:34:35;;;;;;;4.099999;2.3;;;;;;;9.49;87.40723;95674.55;;;;
2020/10/09 02:35:36;;;;;;;3.6;2.4;;;;;;;9.39;87.75977;95680.94;;;;
2020/10/09 02:36:37;;;;;;;3.6;2.4;;;;;;;9.39;87.75977;95680.94;;;;
2020/10/09 02:37:37;;;;;;;3.6;2.4;;;;;;;9.39;87.75977;95680.94;;;;
2020/10/09 02:38:38;;;;;;;3.6;2.4;;;;;;;9.39;87.75977;95680.94;;;;
2020/10/09 02:39:39;;;;;;;3.6;2.4;;;;;;;9.39;87.75977;95680.94;;;;
2020/10/09 02:40:44;;;;;;;3.6;2.4;;;;;;;9.39;87.75977;95680.94;;;;
2020/10/09 02:41:45;;;;;;;3.6;2.4;;;;;;;9.39;87.75977;95680.94;;;;
2020/10/09 02:42:46;;;;;;;3.6;2.4;;;;;;;9.39;87.75977;95680.94;;;;
2020/10/09 02:43:47;;;;;;;3.6;2.4;;;;;;;9.39;87.75977;95680.94;;;;
2020/10/09 02:44:47;;;;;;;3.6;2.4;;;;;;;9.39;87.75977;95680.94;;;;
2020/10/09 02:45:48;;;;;;;4.3;2.6;;;;;;;9.32;88.15918;95687.83;;;;
2020/10/09 02:46:49;;;;;;;4.3;2.6;;;;;;;9.32;88.15918;95687.83;;;;
2020/10/09 02:47:51;;;;;;;4.3;2.6;;;;;;;9.32;88.15918;95687.83;;;;
2020/10/09 02:48:52;;;;;;;4.3;2.6;;;;;;;9.32;88.15918;95687.83;;;;
2020/10/09 02:49:53;;;;;;;4.3;2.6;;;;;;;9.32;88.15918;95687.83;;;;
2020/10/09 02:50:53;;;;;;;4.3;2.6;;;;;;;9.32;88.15918;95687.83;;;;
2020/10/09 02:52:06;;;;;;;4.3;2.6;;;;;;;9.32;88.15918;95687.83;;;;
2020/10/09 02:53:09;;;;;;;4.3;2.6;;;;;;;9.32;88.15918;95687.83;;;;
2020/10/09 02:54:09;;;;;;;4.3;2.6;;;;;;;9.32;88.15918;95687.83;;;;
2020/10/09 02:55:10;;;;;;;4.3;2.6;;;;;;;9.32;88.15918;95687.83;;;;
2020/10/09 02:56:10;;;;;;;4.549999;2.55;;;;;;;9.2;88.80371;95682.42;;;;
2020/10/09 02:57:13;;;;;;;4.549999;2.55;;;;;;;9.2;88.80371;95682.42;;;;
2020/10/09 02:58:13;;;;;;;4.549999;2.55;;;;;;;9.2;88.80371;95682.42;;;;
2020/10/09 02:59:17;;;;;;;4.549999;2.55;;;;;;;9.2;88.80371;95682.42;;;;
2020/10/09 03:00:18;;;;;;;4.549999;2.55;;;;;;;9.2;88.80371;95682.42;;;;
2020/10/09 03:01:48;;;;;;;4.549999;2.55;;;;;;;9.2;88.80371;95682.42;;;;
2020/10/09 03:03:18;;;;;;;4.549999;2.55;;;;;;;9.2;88.80371;95682.42;;;;
2020/10/09 03:04:19;;;;;;;4.549999;2.55;;;;;;;9.2;88.80371;95682.42;;;;
2020/10/09 03:05:19;;;;;;;4.549999;2.55;;;;;;;9.2;88.80371;95682.42;;;;
2020/10/09 03:06:26;;;;;;;4.549999;2.55;;;;;;;9.2;88.80371;95682.42;;;;
2020/10/09 03:07:28;;;;;;;4.8;2.55;;;;;;;9.18;89.19434;95679.03;;;;
2020/10/09 03:08:28;;;;;;;4.8;2.55;;;;;;;9.18;89.19434;95679.03;;;;
2020/10/09 03:09:56;;;;;;;4.8;2.55;;;;;;;9.18;89.19434;95679.03;;;;
2020/10/09 03:10:56;;;;;;;4.8;2.55;;;;;;;9.18;89.19434;95679.03;;;;
2020/10/09 03:12:01;;;;;;;4.8;2.55;;;;;;;9.18;89.19434;95679.03;;;;
2020/10/09 03:13:19;;;;;;;4.8;2.55;;;;;;;9.18;89.19434;95679.03;;;;
2020/10/09 03:14:20;;;;;;;4.8;2.55;;;;;;;9.18;89.19434;95679.03;;;;
2020/10/09 03:15:25;;;;;;;4.8;2.55;;;;;;;9.18;89.19434;95679.03;;;;
2020/10/09 03:16:31;;;;;;;4.8;2.55;;;;;;;9.18;89.19434;95679.03;;;;
2020/10/09 03:17:32;;;;;;;3.1;2.7;;;;;;;9.07;89.37109;95685.23;;;;
2020/10/09 03:18:33;;;;;;;3.1;2.7;;;;;;;9.07;89.37109;95685.23;;;;
2020/10/09 03:19:34;;;;;;;3.1;2.7;;;;;;;9.07;89.37109;95685.23;;;;
2020/10/09 03:20:34;;;;;;;3.1;2.7;;;;;;;9.07;89.37109;95685.23;;;;
2020/10/09 03:21:35;;;;;;;3.1;2.7;;;;;;;9.07;89.37109;95685.23;;;;
2020/10/09 03:22:35;;;;;;;3.1;2.7;;;;;;;9.07;89.37109;95685.23;;;;
2020/10/09 03:23:36;;;;;;;3.1;2.7;;;;;;;9.07;89.37109;95685.23;;;;
2020/10/09 03:24:37;;;;;;;3.1;2.7;;;;;;;9.07;89.37109;95685.23;;;;
2020/10/09 03:25:37;;;;;;;3.1;2.7;;;;;;;9.07;89.37109;95685.23;;;;
2020/10/09 03:26:38;;;;;;;3.1;2.7;;;;;;;9.07;89.37109;95685.23;;;;
2020/10/09 03:27:39;;;;;;;3.1;2.7;;;;;;;9.07;89.37109;95685.23;;;;
2020/10/09 03:28:54;;;;;;;3.2;2.4;;;;;;;9.04;89.85547;95680.16;;;;
2020/10/09 03:30:01;;;;;;;3.2;2.4;;;;;;;9.04;89.85547;95680.16;;;;
2020/10/09 03:31:01;;;;;;;3.2;2.4;;;;;;;9.04;89.85547;95680.16;;;;
2020/10/09 03:32:02;;;;;;;3.2;2.4;;;;;;;9.04;89.85547;95680.16;;;;
2020/10/09 03:33:02;;;;;;;3.2;2.4;;;;;;;9.04;89.85547;95680.16;;;;
2020/10/09 03:34:05;;;;;;;3.2;2.4;;;;;;;9.04;89.85547;95680.16;;;;
2020/10/09 03:35:40;;;;;;;3.2;2.4;;;;;;;9.04;89.85547;95680.16;;;;
2020/10/09 03:36:40;;;;;;;3.2;2.4;;;;;;;9.04;89.85547;95680.16;;;;
2020/10/09 03:37:40;;;;;;;3.2;2.4;;;;;;;9.04;89.85547;95680.16;;;;
2020/10/09 03:38:42;;;;;;;3.2;2.4;;;;;;;9.04;89.85547;95680.16;;;;
2020/10/09 03:39:42;;;;;;;3.7;2.5;;;;;;;8.98;90.14941;95687.33;;;;
2020/10/09 03:40:46;;;;;;;3.7;2.5;;;;;;;8.98;90.14941;95687.33;;;;
2020/10/09 03:41:46;;;;;;;3.7;2.5;;;;;;;8.98;90.14941;95687.33;;;;
2020/10/09 03:42:47;;;;;;;3.7;2.5;;;;;;;8.98;90.14941;95687.33;;;;
2020/10/09 03:43:47;;;;;;;3.7;2.5;;;;;;;8.98;90.14941;95687.33;;;;
2020/10/09 03:44:48;;;;;;;3.7;2.5;;;;;;;8.98;90.14941;95687.33;;;;
2020/10/09 03:45:51;;;;;;;3.7;2.5;;;;;;;8.98;90.14941;95687.33;;;;
2020/10/09 03:46:52;;;;;;;3.7;2.5;;;;;;;8.98;90.14941;95687.33;;;;
2020/10/09 03:47:53;;;;;;;3.7;2.5;;;;;;;8.98;90.14941;95687.33;;;;
2020/10/09 03:48:55;;;;;;;3.7;2.5;;;;;;;8.98;90.14941;95687.33;;;;
2020/10/09 03:49:59;;;;;;;3.4;2.6;;;;;;;8.96;90.46387;95689.03;;;;
2020/10/09 03:51:01;;;;;;;3.4;2.6;;;;;;;8.96;90.46387;95689.03;;;;
2020/10/09 03:52:02;;;;;;;3.4;2.6;;;;;;;8.96;90.46387;95689.03;;;;
2020/10/09 03:53:09;;;;;;;3.4;2.6;;;;;;;8.96;90.46387;95689.03;;;;
2020/10/09 03:54:09;;;;;;;3.4;2.6;;;;;;;8.96;90.46387;95689.03;;;;
2020/10/09 03:55:10;;;;;;;3.4;2.6;;;;;;;8.96;90.46387;95689.03;;;;
2020/10/09 03:56:19;;;;;;;3.4;2.6;;;;;;;8.96;90.46387;95689.03;;;;
2020/10/09 03:57:21;;;;;;;3.4;2.6;;;;;;;8.96;90.46387;95689.03;;;;
2020/10/09 03:58:32;;;;;;;3.4;2.6;;;;;;;8.96;90.46387;95689.03;;;;
2020/10/09 03:59:36;;;;;;;3.4;2.6;;;;;;;8.96;90.46387;95689.03;;;;
2020/10/09 04:00:38;;;;;;;3.25;2.65;;;;;;;8.83;90.88379;95693;;;;
2020/10/09 04:01:50;;;;;;;3.25;2.65;;;;;;;8.83;90.88379;95693;;;;
2020/10/09 04:02:51;;;;;;;3.25;2.65;;;;;;;8.83;90.88379;95693;;;;
2020/10/09 04:03:54;;;;;;;3.25;2.65;;;;;;;8.83;90.88379;95693;;;;
2020/10/09 04:04:59;;;;;;;3.25;2.65;;;;;;;8.83;90.88379;95693;;;;
2020/10/09 04:06:03;;;;;;;3.25;2.65;;;;;;;8.83;90.88379;95693;;;;
2020/10/09 04:07:13;;;;;;;3.25;2.65;;;;;;;8.83;90.88379;95693;;;;
2020/10/09 04:08:13;;;;;;;3.25;2.65;;;;;;;8.83;90.88379;95693;;;;
2020/10/09 04:09:15;;;;;;;3.25;2.65;;;;;;;8.83;90.88379;95693;;;;
2020/10/09 04:10:44;;;;;;;3.25;2.65;;;;;;;8.83;90.88379;95693;;;;
2020/10/09 04:14:00;;;;;;;4.5;2.55;;;;;;;8.8;91.33203;95684.11;;;;
2020/10/09 04:15:01;;;;;;;4.5;2.55;;;;;;;8.8;91.33203;95684.11;;;;
2020/10/09 04:16:01;;;;;;;4.5;2.55;;;;;;;8.8;91.33203;95684.11;;;;
2020/10/09 04:17:02;;;;;;;4.5;2.55;;;;;;;8.8;91.33203;95684.11;;;;
2020/10/09 04:18:05;;;;;;;4.5;2.55;;;;;;;8.8;91.33203;95684.11;;;;
2020/10/09 04:19:14;;;;;;;4.5;2.55;;;;;;;8.8;91.33203;95684.11;;;;
2020/10/09 04:20:14;;;;;;;4.5;2.55;;;;;;;8.8;91.33203;95684.11;;;;
2020/10/09 04:21:21;;;;;;;4.5;2.55;;;;;;;8.8;91.33203;95684.11;;;;
2020/10/09 04:22:30;;;;;;;3.4;2.6;;;;;;;8.65;91.44922;95682.65;;;;
2020/10/09 04:23:31;;;;;;;3.4;2.6;;;;;;;8.65;91.44922;95682.65;;;;
2020/10/09 04:24:32;;;;;;;3.4;2.6;;;;;;;8.65;91.44922;95682.65;;;;
2020/10/09 04:25:34;;;;;;;3.4;2.6;;;;;;;8.65;91.44922;95682.65;;;;
2020/10/09 04:27:05;;;;;;;3.4;2.6;;;;;;;8.65;91.44922;95682.65;;;;
2020/10/09 04:28:06;;;;;;;3.4;2.6;;;;;;;8.65;91.44922;95682.65;;;;
2020/10/09 04:29:10;;;;;;;3.4;2.6;;;;;;;8.65;91.44922;95682.65;;;;
2020/10/09 04:30:11;;;;;;;3.4;2.6;;;;;;;8.65;91.44922;95682.65;;;;
2020/10/09 04:31:12;;;;;;;3.4;2.6;;;;;;;8.65;91.44922;95682.65;;;;
2020/10/09 04:32:13;;;;;;;3.4;2.6;;;;;;;8.65;91.44922;95682.65;;;;
2020/10/09 04:33:13;;;;;;;3.7;2.2;;;;;;;8.54;91.64844;95680.21;;;;
2020/10/09 04:34:25;;;;;;;3.7;2.2;;;;;;;8.54;91.64844;95680.21;;;;
2020/10/09 04:35:34;;;;;;;3.7;2.2;;;;;;;8.54;91.64844;95680.21;;;;
2020/10/09 04:36:39;;;;;;;3.7;2.2;;;;;;;8.54;91.64844;95680.21;;;;
2020/10/09 04:37:39;;;;;;;3.7;2.2;;;;;;;8.54;91.64844;95680.21;;;;
2020/10/09 04:38:40;;;;;;;3.7;2.2;;;;;;;8.54;91.64844;95680.21;;;;
2020/10/09 04:39:45;;;;;;;3.7;2.2;;;;;;;8.54;91.64844;95680.21;;;;
2020/10/09 04:41:17;;;;;;;3.7;2.2;;;;;;;8.54;91.64844;95680.21;;;;
2020/10/09 04:42:34;;;;;;;3.7;2.2;;;;;;;8.54;91.64844;95680.21;;;;
2020/10/09 04:43:39;;;;;;;4.699999;2.3;;;;;;;8.33;91.87109;95661.97;;;;
2020/10/09 04:44:43;;;;;;;4.699999;2.3;;;;;;;8.33;91.87109;95661.97;;;;
2020/10/09 04:45:45;;;;;;;4.699999;2.3;;;;;;;8.33;91.87109;95661.97;;;;
2020/10/09 04:46:46;;;;;;;4.699999;2.3;;;;;;;8.33;91.87109;95661.97;;;;
2020/10/09 04:47:46;;;;;;;4.699999;2.3;;;;;;;8.33;91.87109;95661.97;;;;
2020/10/09 04:48:47;;;;;;;4.699999;2.3;;;;;;;8.33;91.87109;95661.97;;;;
2020/10/09 04:49:47;;;;;;;4.699999;2.3;;;;;;;8.33;91.87109;95661.97;;;;
2020/10/09 04:51:17;;;;;;;4.699999;2.3;;;;;;;8.33;91.87109;95661.97;;;;
2020/10/09 04:52:19;;;;;;;4.699999;2.3;;;;;;;8.33;91.87109;95661.97;;;;
2020/10/09 04:53:19;;;;;;;4.699999;2.3;;;;;;;8.33;91.87109;95661.97;;;;
2020/10/09 04:54:25;;;;;;;4.300001;2.35;;;;;;;8.27;92.13477;95661.46;;;;
2020/10/09 04:56:30;;;;;;;4.300001;2.35;;;;;;;8.27;92.13477;95661.46;;;;
2020/10/09 04:57:32;;;;;;;4.300001;2.35;;;;;;;8.27;92.13477;95661.46;;;;
2020/10/09 04:58:34;;;;;;;4.300001;2.35;;;;;;;8.27;92.13477;95661.46;;;;
2020/10/09 04:59:43;;;;;;;4.300001;2.35;;;;;;;8.27;92.13477;95661.46;;;;
2020/10/09 05:00:45;;;;;;;4.300001;2.35;;;;;;;8.27;92.13477;95661.46;;;;
2020/10/09 05:01:46;;;;;;;4.300001;2.35;;;;;;;8.27;92.13477;95661.46;;;;
2020/10/09 05:03:02;;;;;;;4.300001;2.35;;;;;;;8.27;92.13477;95661.46;;;;
2020/10/09 05:04:06;;;;;;;4.300001;2.35;;;;;;;8.27;92.13477;95661.46;;;;
2020/10/09 05:05:15;;;;;;;4.05;2.65;;;;;;;8.23;92.34668;95666.96;;;;
2020/10/09 05:06:20;;;;;;;4.05;2.65;;;;;;;8.23;92.34668;95666.96;;;;
2020/10/09 05:07:20;;;;;;;4.05;2.65;;;;;;;8.23;92.34668;95666.96;;;;
2020/10/09 05:08:21;;;;;;;4.05;2.65;;;;;;;8.23;92.34668;95666.96;;;;
2020/10/09 05:09:23;;;;;;;4.05;2.65;;;;;;;8.23;92.34668;95666.96;;;;
2020/10/09 05:10:24;;;;;;;4.05;2.65;;;;;;;8.23;92.34668;95666.96;;;;
2020/10/09 05:11:28;;;;;;;4.05;2.65;;;;;;;8.23;92.34668;95666.96;;;;
2020/10/09 05:12:28;;;;;;;4.05;2.65;;;;;;;8.23;92.34668;95666.96;;;;
2020/10/09 05:13:31;;;;;;;4.05;2.65;;;;;;;8.23;92.34668;95666.96;;;;
2020/10/09 05:14:35;;;;;;;4.05;2.65;;;;;;;8.23;92.34668;95666.96;;;;
2020/10/09 05:15:35;;;;;;;5.4;2.65;;;;;;;8.32;92.43066;95659.91;;;;
2020/10/09 05:16:36;;;;;;;5.4;2.65;;;;;;;8.32;92.43066;95659.91;;;;
2020/10/09 05:17:37;;;;;;;5.4;2.65;;;;;;;8.32;92.43066;95659.91;;;;
2020/10/09 05:18:38;;;;;;;5.4;2.65;;;;;;;8.32;92.43066;95659.91;;;;
2020/10/09 05:19:39;;;;;;;5.4;2.65;;;;;;;8.32;92.43066;95659.91;;;;
2020/10/09 05:20:40;;;;;;;5.4;2.65;;;;;;;8.32;92.43066;95659.91;;;;
2020/10/09 05:21:42;;;;;;;5.4;2.65;;;;;;;8.32;92.43066;95659.91;;;;
2020/10/09 05:22:43;;;;;;;5.4;2.65;;;;;;;8.32;92.43066;95659.91;;;;
2020/10/09 05:23:45;;;;;;;5.4;2.65;;;;;;;8.32;92.43066;95659.91;;;;
2020/10/09 05:24:45;;;;;;;5.4;2.65;;;;;;;8.32;92.43066;95659.91;;;;
2020/10/09 05:25:47;;;;;;;5.1;2.75;;;;;;;8.35;92.59277;95661.75;;;;
2020/10/09 05:26:47;;;;;;;5.1;2.75;;;;;;;8.35;92.59277;95661.75;;;;
2020/10/09 05:27:49;;;;;;;5.1;2.75;;;;;;;8.35;92.59277;95661.75;;;;
2020/10/09 05:28:49;;;;;;;5.1;2.75;;;;;;;8.35;92.59277;95661.75;;;;
2020/10/09 05:29:50;;;;;;;5.1;2.75;;;;;;;8.35;92.59277;95661.75;;;;
2020/10/09 05:30:51;;;;;;;5.1;2.75;;;;;;;8.35;92.59277;95661.75;;;;
2020/10/09 05:31:53;;;;;;;5.1;2.75;;;;;;;8.35;92.59277;95661.75;;;;
2020/10/09 05:32:54;;;;;;;5.1;2.75;;;;;;;8.35;92.59277;95661.75;;;;
2020/10/09 05:33:58;;;;;;;5.1;2.75;;;;;;;8.35;92.59277;95661.75;;;;
2020/10/09 05:35:01;;;;;;;5.1;2.75;;;;;;;8.35;92.59277;95661.75;;;;
2020/10/09 05:36:03;;;;;;;5.1;2.75;;;;;;;8.35;92.59277;95661.75;;;;
2020/10/09 05:37:03;;;;;;;3.25;2.95;;;;;;;8.47;92.79883;95661;;;;
2020/10/09 05:38:05;;;;;;;3.25;2.95;;;;;;;8.47;92.79883;95661;;;;
2020/10/09 05:39:06;;;;;;;3.25;2.95;;;;;;;8.47;92.79883;95661;;;;
2020/10/09 05:40:13;;;;;;;3.25;2.95;;;;;;;8.47;92.79883;95661;;;;
2020/10/09 05:41:14;;;;;;;3.25;2.95;;;;;;;8.47;92.79883;95661;;;;
2020/10/09 05:42:15;;;;;;;3.25;2.95;;;;;;;8.47;92.79883;95661;;;;
2020/10/09 05:43:15;;;;;;;3.25;2.95;;;;;;;8.47;92.79883;95661;;;;
2020/10/09 05:44:17;;;;;;;3.25;2.95;;;;;;;8.47;92.79883;95661;;;;
2020/10/09 05:45:18;;;;;;;3.25;2.95;;;;;;;8.47;92.79883;95661;;;;
2020/10/09 05:46:18;;;;;;;3.25;2.95;;;;;;;8.47;92.79883;95661;;;;
2020/10/09 05:47:19;;;;;;;6.699999;3.25;;;;;;;8.6;93.10254;95673.99;;;;
2020/10/09 05:48:21;;;;;;;6.699999;3.25;;;;;;;8.6;93.10254;95673.99;;;;
2020/10/09 05:49:22;;;;;;;6.699999;3.25;;;;;;;8.6;93.10254;95673.99;;;;
2020/10/09 05:50:31;;;;;;;6.699999;3.25;;;;;;;8.6;93.10254;95673.99;;;;
2020/10/09 05:51:47;;;;;;;6.699999;3.25;;;;;;;8.6;93.10254;95673.99;;;;
2020/10/09 05:52:48;;;;;;;6.699999;3.25;;;;;;;8.6;93.10254;95673.99;;;;
2020/10/09 05:53:49;;;;;;;6.699999;3.25;;;;;;;8.6;93.10254;95673.99;;;;
2020/10/09 05:54:50;;;;;;;6.699999;3.25;;;;;;;8.6;93.10254;95673.99;;;;
2020/10/09 05:55:52;;;;;;;6.699999;3.25;;;;;;;8.6;93.10254;95673.99;;;;
2020/10/09 05:56:53;;;;;;;6.699999;3.25;;;;;;;8.6;93.10254;95673.99;;;;
2020/10/09 05:57:54;;;;;;;3.1;2.65;;;;;;;8.83;93.26953;95674.16;;;;
2020/10/09 05:58:56;;;;;;;3.1;2.65;;;;;;;8.83;93.26953;95674.16;;;;
2020/10/09 06:00:00;;;;;;;3.1;2.65;;;;;;;8.83;93.26953;95674.16;;;;
2020/10/09 06:01:08;;;;;;;3.1;2.65;;;;;;;8.83;93.26953;95674.16;;;;
2020/10/09 06:02:18;;;;;;;3.1;2.65;;;;;;;8.83;93.26953;95674.16;;;;
2020/10/09 06:03:23;;;;;;;3.1;2.65;;;;;;;8.83;93.26953;95674.16;;;;
2020/10/09 06:04:30;;;;;;;3.1;2.65;;;;;;;8.83;93.26953;95674.16;;;;
2020/10/09 06:05:31;;;;;;;3.1;2.65;;;;;;;8.83;93.26953;95674.16;;;;
2020/10/09 06:06:38;;;;;;;3.1;2.65;;;;;;;8.83;93.26953;95674.16;;;;
2020/10/09 06:07:39;;;;;;;3.1;2.65;;;;;;;8.83;93.26953;95674.16;;;;
2020/10/09 06:08:42;;;;;;;3.2;2.6;;;;;;;9.01;93.24219;95679.22;;;;
2020/10/09 06:09:43;;;;;;;3.2;2.6;;;;;;;9.01;93.24219;95679.22;;;;
2020/10/09 06:10:46;;;;;;;3.2;2.6;;;;;;;9.01;93.24219;95679.22;;;;
2020/10/09 06:11:47;;;;;;;3.2;2.6;;;;;;;9.01;93.24219;95679.22;;;;
2020/10/09 06:12:56;;;;;;;3.2;2.6;;;;;;;9.01;93.24219;95679.22;;;;
2020/10/09 06:13:56;;;;;;;3.2;2.6;;;;;;;9.01;93.24219;95679.22;;;;
2020/10/09 06:14:57;;;;;;;3.2;2.6;;;;;;;9.01;93.24219;95679.22;;;;
2020/10/09 06:16:01;;;;;;;3.2;2.6;;;;;;;9.01;93.24219;95679.22;;;;
2020/10/09 06:17:04;;;;;;;3.2;2.6;;;;;;;9.01;93.24219;95679.22;;;;
2020/10/09 06:18:15;;;;;;;3.2;2.6;;;;;;;9.01;93.24219;95679.22;;;;
2020/10/09 06:19:19;;;;;;;5.1;2.75;;;;;;;9.28;93.25781;95677.2;;;;
2020/10/09 06:20:20;;;;;;;5.1;2.75;;;;;;;9.28;93.25781;95677.2;;;;
2020/10/09 06:21:24;;;;;;;5.1;2.75;;;;;;;9.28;93.25781;95677.2;;;;
2020/10/09 06:22:24;;;;;;;5.1;2.75;;;;;;;9.28;93.25781;95677.2;;;;
2020/10/09 06:23:27;;;;;;;5.1;2.75;;;;;;;9.28;93.25781;95677.2;;;;
2020/10/09 06:24:29;;;;;;;5.1;2.75;;;;;;;9.28;93.25781;95677.2;;;;
2020/10/09 06:25:29;;;;;;;5.1;2.75;;;;;;;9.28;93.25781;95677.2;;;;
2020/10/09 06:26:31;;;;;;;5.1;2.75;;;;;;;9.28;93.25781;95677.2;;;;
2020/10/09 06:27:33;;;;;;;5.1;2.75;;;;;;;9.28;93.25781;95677.2;;;;
2020/10/09 06:28:33;;;;;;;5.1;2.75;;;;;;;9.28;93.25781;95677.2;;;;
2020/10/09 06:29:36;;;;;;;5.1;2.75;;;;;;;9.28;93.25781;95677.2;;;;
2020/10/09 06:30:40;;;;;;;5.049999;2.8;;;;;;;9.45;93.2832;95685.97;;;;
2020/10/09 06:31:40;;;;;;;5.049999;2.8;;;;;;;9.45;93.2832;95685.97;;;;
2020/10/09 06:32:41;;;;;;;5.049999;2.8;;;;;;;9.45;93.2832;95685.97;;;;
2020/10/09 06:33:42;;;;;;;5.049999;2.8;;;;;;;9.45;93.2832;95685.97;;;;